Kizlyar, Russia
Current Conditions -  °F | °C
As of 8:00 PM on Saturday 25 Oct 2014 (Local Time) from URML Reporting Station
Light Snow Light Snow  
Wind Chill: 15°   Ceiling: 1400
Heat Index: 28°   Visibility: 2mi
Dew Point: 27°   Wind: 20mph
Humidity: 93%   Direction: 360°N
Pressure: 30.48"   Gusts: 27mph
Location:  43.85°N, 46.72°E
Report Text: URML 251700Z 36009G12MPS 3200 -SN BR OVC014 M02/M03 Q1032 NOSIGRMK QFE773/1031
Loading
Personal Weather Stations






























Interactive Weather Map
Tropical Storm Tracking
New forecast layout! Learn more

10-Day Weather Forecast

Advertisements
Track Severe Weather on mobile